createdAt,value
2023-02-11T00:00:57.075Z,5.05
2023-02-11T00:03:23.949Z,5.25
2023-02-11T00:06:01.859Z,4.20
2023-02-11T00:08:28.284Z,4.18
2023-02-11T00:10:56.802Z,5.22
2023-02-11T00:13:24.047Z,4.93
2023-02-11T00:15:51.133Z,4.82
2023-02-11T00:18:18.116Z,5.85
2023-02-11T00:20:44.724Z,5.40
2023-02-11T00:23:11.244Z,5.07
2023-02-11T00:25:45.567Z,5.25
2023-02-11T00:28:12.568Z,4.40
2023-02-11T00:30:39.270Z,4.88
2023-02-11T00:33:05.882Z,4.57
2023-02-11T00:35:32.341Z,5.20
2023-02-11T00:37:58.755Z,4.28
2023-02-11T00:40:25.315Z,5.63
2023-02-11T00:42:51.814Z,5.35
2023-02-11T00:45:20.797Z,3.53
2023-02-11T00:47:47.285Z,3.70
2023-02-11T00:50:13.789Z,6.05
2023-02-11T00:52:40.181Z,4.85
2023-02-11T00:55:08.168Z,4.18
2023-02-11T00:57:34.617Z,4.47
2023-02-11T01:00:01.069Z,5.28
2023-02-11T01:02:27.601Z,4.53
2023-02-11T01:04:54.087Z,4.95
2023-02-11T01:07:20.560Z,4.95
2023-02-11T01:09:49.768Z,4.22
2023-02-11T01:12:16.188Z,4.07
2023-02-11T01:14:43.032Z,5.43
2023-02-11T01:17:09.788Z,6.85
2023-02-11T01:19:39.388Z,5.22
2023-02-11T01:22:05.825Z,6.38
2023-02-11T01:24:32.363Z,5.40
2023-02-11T01:26:58.868Z,5.78
2023-02-11T01:29:25.259Z,4.60
2023-02-11T01:31:52.989Z,5.25
2023-02-11T01:34:19.435Z,5.18
2023-02-11T01:36:45.959Z,4.25
2023-02-11T01:39:12.474Z,4.93
2023-02-11T01:41:38.999Z,4.80
2023-02-11T01:44:27.337Z,6.32
2023-02-11T01:46:55.867Z,5.90
2023-02-11T01:49:29.378Z,5.20
2023-02-11T01:52:04.805Z,5.75
2023-02-11T01:54:56.952Z,3.78
2023-02-11T01:57:29.014Z,4.88
2023-02-11T02:00:12.897Z,7.80
2023-02-11T02:02:43.055Z,6.70
2023-02-11T02:05:33.399Z,5.60
2023-02-11T02:08:16.079Z,5.70
2023-02-11T02:10:45.819Z,5.22
2023-02-11T02:13:13.416Z,6.97
2023-02-11T02:15:46.510Z,6.38
2023-02-11T02:18:40.873Z,5.22
2023-02-11T02:21:31.194Z,5.18
2023-02-11T02:24:03.558Z,4.80
2023-02-11T02:26:52.022Z,5.50
2023-02-11T02:29:49.485Z,6.57
2023-02-11T02:32:31.174Z,6.80
2023-02-11T02:35:12.892Z,6.05
2023-02-11T02:38:06.660Z,5.32
2023-02-11T02:40:49.930Z,5.40
2023-02-11T02:43:17.198Z,5.13
2023-02-11T02:45:43.650Z,5.05
2023-02-11T02:48:35.658Z,5.03
2023-02-11T02:51:32.334Z,5.60
2023-02-11T02:54:30.726Z,6.18
2023-02-11T02:57:18.926Z,5.28
2023-02-11T03:00:19.517Z,5.07
2023-02-11T03:03:10.277Z,4.43
2023-02-11T03:05:49.743Z,6.00
2023-02-11T03:08:25.396Z,5.25
2023-02-11T03:10:54.177Z,4.32
2023-02-11T03:13:26.527Z,6.00
2023-02-11T03:15:57.800Z,8.40
2023-02-11T03:18:28.768Z,5.70
2023-02-11T03:20:56.859Z,4.35
2023-02-11T03:23:35.336Z,5.15
2023-02-11T03:26:15.198Z,5.45
2023-02-11T03:28:50.122Z,6.28
2023-02-11T03:31:44.007Z,5.15
2023-02-11T03:34:17.249Z,5.82
2023-02-11T03:36:57.519Z,5.10
2023-02-11T03:39:36.513Z,6.10
2023-02-11T03:42:06.733Z,5.75
2023-02-11T03:44:41.301Z,7.13
2023-02-11T03:47:10.852Z,6.78
2023-02-11T03:49:40.809Z,7.65
2023-02-11T03:52:11.265Z,4.38
2023-02-11T03:54:42.023Z,7.63
2023-02-11T03:57:08.630Z,7.10
2023-02-11T03:59:53.860Z,6.57
2023-02-11T04:02:22.211Z,5.97
2023-02-11T04:04:48.710Z,7.05
2023-02-11T04:07:15.134Z,6.30
2023-02-11T04:09:41.561Z,7.30
2023-02-11T04:12:08.438Z,6.32
2023-02-11T04:14:35.009Z,6.68
2023-02-11T04:17:01.489Z,6.80
2023-02-11T04:19:28.066Z,6.25
2023-02-11T04:21:54.509Z,6.35
2023-02-11T04:24:20.981Z,6.55
2023-02-11T04:26:47.397Z,6.82
2023-02-11T04:29:13.835Z,7.15
2023-02-11T04:31:40.300Z,7.20
2023-02-11T04:34:06.747Z,8.05
2023-02-11T04:36:33.218Z,7.85
2023-02-11T04:38:59.734Z,8.18
2023-02-11T04:41:28.161Z,7.72
2023-02-11T04:43:54.693Z,7.25
2023-02-11T04:46:21.241Z,7.40
2023-02-11T04:48:47.677Z,8.63
2023-02-11T04:51:14.162Z,9.00
2023-02-11T04:53:40.795Z,7.53
2023-02-11T04:56:07.256Z,7.63
2023-02-11T04:58:33.968Z,10.10
2023-02-11T05:01:11.878Z,9.02
2023-02-11T05:03:38.975Z,8.32
2023-02-11T05:06:06.164Z,10.25
2023-02-11T05:08:32.834Z,10.55
2023-02-11T05:10:59.290Z,9.55
2023-02-11T05:13:25.773Z,8.80
2023-02-11T05:15:53.284Z,10.73
2023-02-11T05:18:20.071Z,9.73
2023-02-11T05:20:46.566Z,9.85
2023-02-11T05:23:13.041Z,10.65
2023-02-11T05:25:39.448Z,11.07
2023-02-11T05:28:06.801Z,9.70
2023-02-11T05:30:36.350Z,9.63
2023-02-11T05:33:02.880Z,10.55
2023-02-11T05:35:30.358Z,11.68
2023-02-11T05:37:58.002Z,11.93
2023-02-11T05:40:24.583Z,12.45
2023-02-11T05:42:52.468Z,10.88
2023-02-11T05:45:18.938Z,11.38
2023-02-11T05:47:45.512Z,11.75
2023-02-11T05:50:12.041Z,10.80
2023-02-11T05:52:38.435Z,9.55
2023-02-11T05:55:05.751Z,10.63
2023-02-11T05:57:32.152Z,10.95
2023-02-11T05:59:58.632Z,11.45
2023-02-11T06:02:25.245Z,11.32
2023-02-11T06:04:51.762Z,13.02
2023-02-11T06:07:19.684Z,11.48
2023-02-11T06:09:46.438Z,10.98
2023-02-11T06:12:12.892Z,10.35
2023-02-11T06:14:39.301Z,12.27
2023-02-11T06:17:05.716Z,11.95
2023-02-11T06:19:32.225Z,12.85
2023-02-11T06:21:59.634Z,13.60
2023-02-11T06:24:54.713Z,14.05
2023-02-11T06:27:15.850Z,11.88
2023-02-11T06:29:44.155Z,12.65
2023-02-11T06:32:28.165Z,16.52
2023-02-11T06:34:57.109Z,13.40
2023-02-11T06:37:23.936Z,14.18
2023-02-11T06:39:52.853Z,13.45
2023-02-11T06:42:19.392Z,14.43
2023-02-11T06:44:45.843Z,18.25
2023-02-11T06:47:12.282Z,17.08
2023-02-11T06:49:38.694Z,22.77
2023-02-11T06:52:05.633Z,17.35
2023-02-11T06:54:32.069Z,16.75
2023-02-11T06:56:58.461Z,13.93
2023-02-11T06:59:24.851Z,14.77
2023-02-11T07:01:51.544Z,17.50
2023-02-11T07:04:27.497Z,15.55
2023-02-11T07:06:53.984Z,14.50
2023-02-11T07:09:20.577Z,16.90
2023-02-11T07:11:46.959Z,18.88
2023-02-11T07:14:13.743Z,17.42
2023-02-11T07:16:40.723Z,18.65
2023-02-11T07:19:07.345Z,14.52
2023-02-11T07:21:34.868Z,17.05
2023-02-11T07:24:01.685Z,17.65
2023-02-11T07:26:29.231Z,18.23
2023-02-11T07:28:56.247Z,15.95
2023-02-11T07:31:26.106Z,15.85
2023-02-11T07:33:56.701Z,17.73
2023-02-11T07:36:24.306Z,18.27
2023-02-11T07:38:50.820Z,18.25
2023-02-11T07:41:20.457Z,16.98
2023-02-11T07:43:47.356Z,17.05
2023-02-11T07:46:20.453Z,20.88
2023-02-11T07:48:47.396Z,17.45
2023-02-11T07:51:22.348Z,17.35
2023-02-11T07:53:49.001Z,19.13
2023-02-11T07:56:17.064Z,19.98
2023-02-11T07:58:43.845Z,17.45
2023-02-11T08:01:13.230Z,14.57
2023-02-11T08:03:41.297Z,15.60
2023-02-11T08:06:10.431Z,20.10
2023-02-11T08:08:37.392Z,18.70
2023-02-11T08:11:21.447Z,14.50
2023-02-11T08:13:48.584Z,16.55
2023-02-11T08:16:25.289Z,17.63
2023-02-11T08:18:53.440Z,18.15
2023-02-11T08:21:20.910Z,18.33
2023-02-11T08:23:47.574Z,16.50
2023-02-11T08:26:17.490Z,17.10
2023-02-11T08:28:45.610Z,17.38
2023-02-11T08:31:18.355Z,18.50
2023-02-11T08:33:52.398Z,19.20
2023-02-11T08:36:23.196Z,15.07
2023-02-11T08:38:49.776Z,17.42
2023-02-11T08:41:20.147Z,17.83
2023-02-11T08:43:47.158Z,17.92
2023-02-11T08:46:17.436Z,17.58
2023-02-11T08:48:44.741Z,16.90
2023-02-11T08:51:20.000Z,17.50
2023-02-11T08:53:46.743Z,16.98
2023-02-11T08:56:14.660Z,17.52
2023-02-11T08:58:41.863Z,15.63
2023-02-11T09:01:25.137Z,17.85
2023-02-11T09:03:51.964Z,17.60
2023-02-11T09:06:18.741Z,17.83
2023-02-11T09:08:51.903Z,16.20
2023-02-11T09:11:23.142Z,17.10
2023-02-11T09:13:51.473Z,17.17
2023-02-11T09:16:21.858Z,16.48
2023-02-11T09:18:49.403Z,17.38
2023-02-11T09:21:18.356Z,17.50
2023-02-11T09:23:47.623Z,17.95
2023-02-11T09:26:16.013Z,17.02
2023-02-11T09:28:42.579Z,16.83
2023-02-11T09:31:11.752Z,15.93
2023-02-11T09:33:42.159Z,17.52
2023-02-11T09:36:08.972Z,17.13
2023-02-11T09:38:35.438Z,16.60
2023-02-11T09:41:07.800Z,15.93
2023-02-11T09:43:44.116Z,17.40
2023-02-11T09:46:15.353Z,14.95
2023-02-11T09:48:45.342Z,16.37
2023-02-11T09:51:47.274Z,17.10
2023-02-11T09:54:27.297Z,15.55
2023-02-11T09:56:53.937Z,15.52
2023-02-11T09:59:21.115Z,15.70
2023-02-11T10:01:53.587Z,16.20
2023-02-11T10:04:55.717Z,15.15
2023-02-11T10:07:43.702Z,16.15
2023-02-11T10:10:17.215Z,15.25
2023-02-11T10:13:11.677Z,15.27
2023-02-11T10:15:56.906Z,16.25
2023-02-11T10:18:49.516Z,14.90
2023-02-11T10:24:10.031Z,14.90
2023-02-11T10:26:38.943Z,14.30
2023-02-11T10:29:38.808Z,14.75
2023-02-11T10:32:26.732Z,14.38
2023-02-11T10:34:58.473Z,15.60
2023-02-11T10:37:24.983Z,14.77
2023-02-11T10:39:51.353Z,14.57
2023-02-11T10:42:18.322Z,14.45
2023-02-11T10:45:17.763Z,14.60
2023-02-11T10:47:44.286Z,13.40
2023-02-11T10:50:24.035Z,12.15
2023-02-11T10:52:50.521Z,12.13
2023-02-11T10:55:27.345Z,12.80
2023-02-11T10:58:00.801Z,14.25
2023-02-11T11:00:45.441Z,11.25
2023-02-11T11:03:37.721Z,11.65
2023-02-11T11:06:09.133Z,9.38
2023-02-11T11:08:44.444Z,8.65
2023-02-11T11:11:13.822Z,8.95
2023-02-11T11:13:52.640Z,8.48
2023-02-11T11:16:22.116Z,8.13
2023-02-11T11:18:50.834Z,7.80
2023-02-11T11:21:23.327Z,8.30
2023-02-11T11:23:58.748Z,9.00
2023-02-11T11:26:28.478Z,9.75
2023-02-11T11:28:57.492Z,8.63
2023-02-11T11:31:42.435Z,7.35
2023-02-11T11:34:29.877Z,7.93
2023-02-11T11:36:59.673Z,8.00
2023-02-11T11:39:32.470Z,8.63
2023-02-11T11:42:06.089Z,8.68
2023-02-11T11:44:40.819Z,6.57
2023-02-11T11:47:22.290Z,6.72
2023-02-11T11:50:03.684Z,7.60
2023-02-11T11:52:36.458Z,8.10
2023-02-11T11:55:12.901Z,9.00
2023-02-11T11:57:40.505Z,7.85
2023-02-11T12:00:17.771Z,7.75
2023-02-11T12:03:18.561Z,7.43
2023-02-11T12:06:10.734Z,6.90
2023-02-11T12:09:11.237Z,7.75
2023-02-11T12:12:20.744Z,7.68
2023-02-11T12:15:02.250Z,7.65
2023-02-11T12:18:00.964Z,7.35
2023-02-11T12:20:45.876Z,7.93
2023-02-11T12:23:27.793Z,8.15
2023-02-11T12:26:16.672Z,7.07
2023-02-11T12:29:10.360Z,7.30
2023-02-11T12:32:04.970Z,7.45
2023-02-11T12:35:09.332Z,7.18
2023-02-11T12:37:51.117Z,6.97
2023-02-11T12:40:35.299Z,8.07
2023-02-11T12:43:36.694Z,8.07
2023-02-11T12:46:37.779Z,7.75
2023-02-11T12:49:10.073Z,6.18
2023-02-11T12:52:03.763Z,7.72
2023-02-11T12:54:41.712Z,6.68
2023-02-11T12:57:22.991Z,7.07
2023-02-11T13:00:22.649Z,6.70
2023-02-11T13:03:11.012Z,9.45
2023-02-11T13:05:43.657Z,7.47
2023-02-11T13:08:27.767Z,7.25
2023-02-11T13:11:01.294Z,6.75
2023-02-11T13:13:50.669Z,7.40
2023-02-11T13:16:32.643Z,6.95
2023-02-11T13:19:14.211Z,7.13
2023-02-11T13:21:56.186Z,6.18
2023-02-11T13:24:27.266Z,5.60
2023-02-11T13:27:23.720Z,6.30
2023-02-11T13:30:21.956Z,6.38
2023-02-11T13:32:54.312Z,5.95
2023-02-11T13:35:38.579Z,5.75
2023-02-11T13:38:17.524Z,6.18
2023-02-11T13:40:44.389Z,6.20
2023-02-11T13:43:25.482Z,5.38
2023-02-11T13:45:57.473Z,5.97
2023-02-11T13:51:10.018Z,5.55
2023-02-11T13:53:48.644Z,6.90
2023-02-11T13:56:30.049Z,6.90
2023-02-11T13:58:59.651Z,6.28
2023-02-11T14:02:12.850Z,6.05
2023-02-11T14:05:22.636Z,6.38
2023-02-11T14:08:33.623Z,6.47
2023-02-11T14:11:02.749Z,6.15
2023-02-11T14:13:33.658Z,6.05
2023-02-11T14:16:37.593Z,7.47
2023-02-11T14:19:06.338Z,6.80
2023-02-11T14:21:42.290Z,7.03
2023-02-11T14:24:12.964Z,6.75
2023-02-11T14:26:52.655Z,4.75
2023-02-11T14:29:34.778Z,6.30
2023-02-11T14:32:38.056Z,6.50
2023-02-11T14:35:22.662Z,7.18
2023-02-11T14:38:16.530Z,5.45
2023-02-11T14:41:03.450Z,6.07
2023-02-11T14:43:46.367Z,5.00
2023-02-11T14:46:15.546Z,6.63
2023-02-11T14:48:49.332Z,6.18
2023-02-11T14:51:25.758Z,6.55
2023-02-11T14:53:57.837Z,5.68
2023-02-11T14:58:55.169Z,6.43
2023-02-11T15:01:40.216Z,6.65
2023-02-11T15:04:23.989Z,6.55
2023-02-11T15:06:50.929Z,6.00
2023-02-11T15:09:27.862Z,4.55
2023-02-11T15:11:55.883Z,5.25
2023-02-11T15:14:34.415Z,4.85
2023-02-11T15:17:08.042Z,4.63
2023-02-11T15:19:35.904Z,6.10
2023-02-11T15:22:05.901Z,4.88
2023-02-11T15:24:35.526Z,5.50
2023-02-11T15:27:14.556Z,4.90
2023-02-11T15:29:44.743Z,5.07
2023-02-11T15:32:17.407Z,5.47
2023-02-11T15:34:45.693Z,5.60
2023-02-11T15:37:19.547Z,6.63
2023-02-11T15:39:46.174Z,4.82
2023-02-11T15:42:28.576Z,4.70
2023-02-11T15:45:16.996Z,6.45
2023-02-11T15:47:52.659Z,8.15
2023-02-11T15:50:35.177Z,7.20
2023-02-11T15:53:25.246Z,8.25
2023-02-11T15:55:54.093Z,6.97
2023-02-11T15:58:22.663Z,5.15
2023-02-11T16:00:56.607Z,5.05
2023-02-11T16:03:28.000Z,4.40
2023-02-11T16:05:56.481Z,5.47
2023-02-11T16:08:29.772Z,6.13
2023-02-11T16:11:08.743Z,5.95
2023-02-11T16:13:47.548Z,5.82
2023-02-11T16:16:24.854Z,4.75
2023-02-11T16:19:04.971Z,5.38
2023-02-11T16:21:39.279Z,5.90
2023-02-11T16:24:07.957Z,4.82
2023-02-11T16:26:43.124Z,5.20
2023-02-11T16:29:29.818Z,5.05
2023-02-11T16:32:09.099Z,7.20
2023-02-11T16:34:36.506Z,7.70
2023-02-11T16:37:05.354Z,7.63
2023-02-11T16:39:32.097Z,9.32
2023-02-11T16:41:59.518Z,7.75
2023-02-11T16:44:26.306Z,8.60
2023-02-11T16:46:53.934Z,7.47
2023-02-11T16:49:23.954Z,5.90
2023-02-11T16:51:53.064Z,5.82
2023-02-11T16:54:20.207Z,8.55
2023-02-11T16:56:46.786Z,5.85
2023-02-11T16:59:13.429Z,6.50
2023-02-11T17:01:41.186Z,7.63
2023-02-11T17:04:14.720Z,6.50
2023-02-11T17:06:41.142Z,6.45
2023-02-11T17:09:08.494Z,6.88
2023-02-11T17:11:34.924Z,7.63
2023-02-11T17:14:01.365Z,7.55
2023-02-11T17:16:29.750Z,6.32
2023-02-11T17:18:56.233Z,7.13
2023-02-11T17:21:27.122Z,6.50
2023-02-11T17:23:55.179Z,6.15
2023-02-11T17:26:21.693Z,7.32
2023-02-11T17:28:48.249Z,7.45
2023-02-11T17:31:15.191Z,6.28
2023-02-11T17:33:41.750Z,7.22
2023-02-11T17:36:10.349Z,7.25
2023-02-11T17:38:38.209Z,7.78
2023-02-11T17:41:07.919Z,6.72
2023-02-11T17:43:34.438Z,7.28
2023-02-11T17:46:05.494Z,7.45
2023-02-11T17:48:33.872Z,9.23
2023-02-11T17:51:00.469Z,9.10
2023-02-11T17:53:26.880Z,8.27
2023-02-11T17:55:55.983Z,8.50
2023-02-11T17:58:22.886Z,7.32
2023-02-11T18:00:49.810Z,7.55
2023-02-11T18:03:16.241Z,8.20
2023-02-11T18:05:42.692Z,8.02
2023-02-11T18:08:09.340Z,7.63
2023-02-11T18:10:35.821Z,7.25
2023-02-11T18:13:02.457Z,7.88
2023-02-11T18:15:29.018Z,6.93
2023-02-11T18:17:55.947Z,7.70
2023-02-11T18:20:22.423Z,8.75
2023-02-11T18:22:48.915Z,8.25
2023-02-11T18:25:15.999Z,7.25
2023-02-11T18:27:43.491Z,8.65
2023-02-11T18:30:20.200Z,8.23
2023-02-11T18:32:46.806Z,8.15
2023-02-11T18:35:15.141Z,7.38
2023-02-11T18:37:42.660Z,8.80
2023-02-11T18:40:10.591Z,7.57
2023-02-11T18:42:37.155Z,7.95
2023-02-11T18:45:09.669Z,7.82
2023-02-11T18:47:37.768Z,8.95
2023-02-11T18:50:10.112Z,7.97
2023-02-11T18:52:38.353Z,9.02
2023-02-11T18:55:09.057Z,8.25
2023-02-11T18:57:35.498Z,8.75
2023-02-11T19:00:01.901Z,9.15
2023-02-11T19:02:29.337Z,9.20
2023-02-11T19:04:55.840Z,8.05
2023-02-11T19:07:22.295Z,9.50
2023-02-11T19:09:49.030Z,8.93
2023-02-11T19:12:15.576Z,9.27
2023-02-11T19:14:42.009Z,10.18
2023-02-11T19:17:11.841Z,9.18
2023-02-11T19:19:38.456Z,10.43
2023-02-11T19:22:10.554Z,8.48
2023-02-11T19:24:38.527Z,9.15
2023-02-11T19:27:05.210Z,10.20
2023-02-11T19:29:35.122Z,9.57
2023-02-11T19:32:04.235Z,10.65
2023-02-11T19:34:30.774Z,9.52
2023-02-11T19:36:59.576Z,9.93
2023-02-11T19:39:29.322Z,9.93
2023-02-11T19:41:55.791Z,10.00
2023-02-11T19:44:22.232Z,9.20
2023-02-11T19:46:50.219Z,9.35
2023-02-11T19:49:23.194Z,9.93
2023-02-11T19:51:53.978Z,10.25
2023-02-11T19:54:20.777Z,9.68
2023-02-11T19:56:47.878Z,10.13
2023-02-11T19:59:15.523Z,10.07
2023-02-11T20:01:42.322Z,9.50
2023-02-11T20:04:09.073Z,10.70
2023-02-11T20:06:35.627Z,9.48
2023-02-11T20:09:06.492Z,9.38
2023-02-11T20:11:35.828Z,10.52
2023-02-11T20:14:02.700Z,9.20
2023-02-11T20:16:47.079Z,8.13
2023-02-11T20:19:17.795Z,9.75
2023-02-11T20:21:47.110Z,9.70
2023-02-11T20:24:14.285Z,8.70
2023-02-11T20:26:42.399Z,10.13
2023-02-11T20:29:08.940Z,10.63
2023-02-11T20:31:35.687Z,9.45
2023-02-11T20:34:02.468Z,10.55
2023-02-11T20:36:32.350Z,12.05
2023-02-11T20:39:00.496Z,9.05
2023-02-11T20:41:34.192Z,8.60
2023-02-11T20:44:04.065Z,8.95
2023-02-11T20:46:33.178Z,9.05
2023-02-11T20:49:00.913Z,9.25
2023-02-11T20:51:30.350Z,9.73
2023-02-11T20:53:57.581Z,9.73
2023-02-11T20:56:26.964Z,9.77
2023-02-11T20:58:53.466Z,10.68
2023-02-11T21:01:25.701Z,10.80
2023-02-11T21:03:53.666Z,9.23
2023-02-11T21:06:21.726Z,10.25
2023-02-11T21:08:48.291Z,11.75
2023-02-11T21:11:15.219Z,10.65
2023-02-11T21:13:42.746Z,10.60
2023-02-11T21:16:13.499Z,8.93
2023-02-11T21:18:40.334Z,10.65
2023-02-11T21:21:07.147Z,9.75
2023-02-11T21:23:33.660Z,10.63
2023-02-11T21:26:00.114Z,11.38
2023-02-11T21:28:26.744Z,11.25
2023-02-11T21:30:55.185Z,11.60
2023-02-11T21:33:23.442Z,10.88
2023-02-11T21:35:50.203Z,11.50
2023-02-11T21:38:16.793Z,11.40
2023-02-11T21:40:43.324Z,10.15
2023-02-11T21:43:09.799Z,9.93
2023-02-11T21:45:42.733Z,10.98
2023-02-11T21:48:09.425Z,11.27
2023-02-11T21:50:43.226Z,11.85
2023-02-11T21:53:09.833Z,10.95
2023-02-11T21:55:37.436Z,12.65
2023-02-11T21:58:04.863Z,9.07
2023-02-11T22:00:32.102Z,11.30
2023-02-11T22:02:58.530Z,11.00
2023-02-11T22:05:25.293Z,12.35
2023-02-11T22:07:52.130Z,13.05
2023-02-11T22:10:19.651Z,10.95
2023-02-11T22:12:46.548Z,11.25
2023-02-11T22:15:13.268Z,11.80
2023-02-11T22:17:39.846Z,10.40
2023-02-11T22:20:08.814Z,10.60
2023-02-11T22:22:35.527Z,11.60
2023-02-11T22:25:03.289Z,11.98
2023-02-11T22:27:29.798Z,11.55
2023-02-11T22:29:56.287Z,12.75
2023-02-11T22:32:22.881Z,13.10
2023-02-11T22:34:51.498Z,12.48
2023-02-11T22:37:22.500Z,12.73
2023-02-11T22:39:49.110Z,13.38
2023-02-11T22:42:15.519Z,11.75
2023-02-11T22:44:42.192Z,12.70
2023-02-11T22:47:08.681Z,11.20
2023-02-11T22:49:35.998Z,14.40
2023-02-11T22:52:03.468Z,11.95
2023-02-11T22:54:30.029Z,10.98
2023-02-11T22:56:56.407Z,14.98
2023-02-11T22:59:22.848Z,13.57
2023-02-11T23:01:49.386Z,13.77
2023-02-11T23:04:17.020Z,12.68
2023-02-11T23:06:43.578Z,14.68
2023-02-11T23:09:12.451Z,14.05
2023-02-11T23:11:40.545Z,12.32
2023-02-11T23:14:08.690Z,14.75
2023-02-11T23:16:35.491Z,14.55
2023-02-11T23:19:07.919Z,12.70
2023-02-11T23:21:37.101Z,14.60
2023-02-11T23:24:14.706Z,13.80
2023-02-11T23:26:43.226Z,12.52
2023-02-11T23:29:10.898Z,12.95
2023-02-11T23:31:41.366Z,13.35
2023-02-11T23:34:08.829Z,13.27
2023-02-11T23:36:36.092Z,13.75
2023-02-11T23:39:03.047Z,15.02
2023-02-11T23:41:29.805Z,13.63
2023-02-11T23:43:57.883Z,14.75
2023-02-11T23:46:26.608Z,12.57
2023-02-11T23:48:53.390Z,12.75
2023-02-11T23:51:20.405Z,13.02
2023-02-11T23:53:49.179Z,12.45
2023-02-11T23:56:18.741Z,13.55
2023-02-11T23:58:48.198Z,14.50
